createdAt,value
2018-09-28T00:00:19.977Z,1016.05
2018-09-28T00:01:28.623Z,1016.06
2018-09-28T00:02:37.523Z,1016.1
2018-09-28T00:03:46.165Z,1016.14
2018-09-28T00:04:55.072Z,1016.16
2018-09-28T00:06:03.719Z,1016.15
2018-09-28T00:07:12.355Z,1016.16
2018-09-28T00:08:20.996Z,1016.18
2018-09-28T00:09:29.903Z,1016.17
2018-09-28T00:10:38.555Z,1016.14
2018-09-28T00:11:47.188Z,1016.19
2018-09-28T00:12:55.832Z,1016.2
2018-09-28T00:14:04.483Z,1016.18
2018-09-28T00:15:13.393Z,1016.16
2018-09-28T00:16:22.035Z,1016.18
2018-09-28T00:17:30.673Z,1016.14
2018-09-28T00:18:39.311Z,1016.11
2018-09-28T00:19:47.950Z,1016.1
2018-09-28T00:20:56.597Z,1016.14
2018-09-28T00:22:05.502Z,1016.11
2018-09-28T00:23:14.146Z,1016.11
2018-09-28T00:24:22.777Z,1016.14
2018-09-28T00:25:31.427Z,1016.17
2018-09-28T00:26:40.334Z,1016.22
2018-09-28T00:27:48.981Z,1016.3
2018-09-28T00:28:57.613Z,1016.36
2018-09-28T00:30:06.263Z,1016.37
2018-09-28T00:31:14.900Z,1016.25
2018-09-28T00:32:23.541Z,1016.22
2018-09-28T00:33:32.441Z,1016.36
2018-09-28T00:34:41.084Z,1016.42
2018-09-28T00:35:50.060Z,1016.42
2018-09-28T00:36:58.909Z,1016.33
2018-09-28T00:38:07.553Z,1016.25
2018-09-28T00:39:16.186Z,1016.36
2018-09-28T00:40:24.833Z,1016.43
2018-09-28T00:41:33.468Z,1016.43
2018-09-28T00:42:42.117Z,1016.33
2018-09-28T00:43:50.748Z,1016.29
2018-09-28T00:44:59.392Z,1016.22
2018-09-28T00:46:08.032Z,1016.27
2018-09-28T00:47:16.680Z,1016.31
2018-09-28T00:48:25.315Z,1016.31
2018-09-28T00:49:33.961Z,1016.16
2018-09-28T00:50:42.599Z,1016.11
2018-09-28T00:51:51.249Z,1016.15
2018-09-28T00:52:59.889Z,1016.18
2018-09-28T00:54:08.537Z,1016.23
2018-09-28T00:55:17.176Z,1016.22
2018-09-28T00:56:25.814Z,1016.16
2018-09-28T00:57:34.464Z,1016.14
2018-09-28T00:58:43.363Z,1016.13
2018-09-28T00:59:52.275Z,1016.12
2018-09-28T01:01:01.171Z,1016.08
2018-09-28T01:02:09.866Z,1016.04
2018-09-28T01:03:18.457Z,1016.08
2018-09-28T01:04:27.106Z,1016.04
2018-09-28T01:05:35.740Z,1016.07
2018-09-28T01:06:44.389Z,1016
2018-09-28T01:07:53.031Z,1016
2018-09-28T01:09:01.669Z,1016
2018-09-28T01:10:10.302Z,1016.05
2018-09-28T01:11:18.943Z,1016.05
2018-09-28T01:12:27.588Z,1016
2018-09-28T01:13:36.231Z,1016.01
2018-09-28T01:14:44.874Z,1015.96
2018-09-28T01:15:53.506Z,1015.98
2018-09-28T01:17:02.151Z,1015.93
2018-09-28T01:18:10.785Z,1015.96
2018-09-28T01:19:19.694Z,1016.01
2018-09-28T01:20:28.334Z,1016.01
2018-09-28T01:21:36.974Z,1016.03
2018-09-28T01:22:45.615Z,1016.01
2018-09-28T01:23:54.520Z,1015.99
2018-09-28T01:25:03.159Z,1016
2018-09-28T01:26:11.797Z,1015.98
2018-09-28T01:27:20.443Z,1016
2018-09-28T01:28:29.085Z,1015.98
2018-09-28T01:29:37.723Z,1015.97
2018-09-28T01:30:46.362Z,1015.96
2018-09-28T01:31:55.264Z,1015.95
2018-09-28T01:33:03.904Z,1015.96
2018-09-28T01:34:12.551Z,1015.95
2018-09-28T01:35:21.189Z,1015.99
2018-09-28T01:36:29.829Z,1015.99
2018-09-28T01:37:38.466Z,1015.99
2018-09-28T01:38:47.110Z,1016
2018-09-28T01:39:56.010Z,1016.01
2018-09-28T01:41:04.657Z,1016.02
2018-09-28T01:42:13.287Z,1016.03
2018-09-28T01:43:21.932Z,1016
2018-09-28T01:44:30.573Z,1015.96
2018-09-28T01:45:39.216Z,1015.99
2018-09-28T01:46:47.852Z,1016.02
2018-09-28T01:47:56.495Z,1016.02
2018-09-28T01:49:05.143Z,1016
2018-09-28T01:50:14.309Z,1016.02
2018-09-28T01:51:22.951Z,1016.04
2018-09-28T01:52:31.587Z,1016.04
2018-09-28T01:53:40.497Z,1016.06
2018-09-28T01:54:49.401Z,1016.1
2018-09-28T01:55:58.054Z,1016.09
2018-09-28T01:57:07.214Z,1016.03
2018-09-28T01:58:15.856Z,1016.03
2018-09-28T01:59:24.496Z,1016.03
2018-09-28T02:00:33.141Z,1016.05
2018-09-28T02:01:41.778Z,1016
2018-09-28T02:02:50.422Z,1016.05
2018-09-28T02:03:59.059Z,1016.04
2018-09-28T02:05:07.709Z,1016.03
2018-09-28T02:06:16.346Z,1016.05
2018-09-28T02:07:24.990Z,1016.05
2018-09-28T02:08:33.629Z,1016.04
2018-09-28T02:09:42.271Z,1016.07
2018-09-28T02:10:51.177Z,1016.07
2018-09-28T02:11:59.820Z,1016.1
2018-09-28T02:13:08.718Z,1016.11
2018-09-28T02:14:17.359Z,1016.14
2018-09-28T02:15:26.003Z,1016.13
2018-09-28T02:16:34.647Z,1016.11
2018-09-28T02:17:43.290Z,1016.1
2018-09-28T02:18:52.201Z,1016.09
2018-09-28T02:20:01.109Z,1016.09
2018-09-28T02:21:09.745Z,1016.09
2018-09-28T02:22:18.391Z,1016.08
2018-09-28T02:23:27.022Z,1016.04
2018-09-28T02:24:35.668Z,1016.06
2018-09-28T02:25:44.313Z,1016.04
2018-09-28T02:26:52.953Z,1016.08
2018-09-28T02:28:01.601Z,1016.09
2018-09-28T02:29:10.505Z,1016.09
2018-09-28T02:30:19.146Z,1016.14
2018-09-28T02:31:28.055Z,1016.15
2018-09-28T02:32:36.973Z,1016.16
2018-09-28T02:33:45.610Z,1016.11
2018-09-28T02:34:54.524Z,1016.15
2018-09-28T02:36:03.159Z,1016.1
2018-09-28T02:37:11.808Z,1016.09
2018-09-28T02:38:20.444Z,1016.06
2018-09-28T02:39:29.349Z,1016.04
2018-09-28T02:40:37.988Z,1016.02
2018-09-28T02:41:46.641Z,1016.06
2018-09-28T02:42:55.278Z,1016.03
2018-09-28T02:44:04.231Z,1016.06
2018-09-28T02:45:12.870Z,1016.03
2018-09-28T02:46:21.514Z,1016.06
2018-09-28T02:47:30.434Z,1016.06
2018-09-28T02:48:39.346Z,1016.05
2018-09-28T02:49:48.254Z,1016.04
2018-09-28T02:50:57.148Z,1016.1
2018-09-28T02:52:06.332Z,1016.13
2018-09-28T02:53:15.244Z,1016.08
2018-09-28T02:54:23.887Z,1016.1
2018-09-28T02:55:32.781Z,1016.11
2018-09-28T02:56:41.483Z,1016.15
2018-09-28T02:57:50.072Z,1016.12
2018-09-28T02:58:58.980Z,1016.11
2018-09-28T03:00:07.615Z,1016.15
2018-09-28T03:01:16.263Z,1016.13
2018-09-28T03:02:24.908Z,1016.16
2018-09-28T03:03:33.555Z,1016.17
2018-09-28T03:04:42.467Z,1016.16
2018-09-28T03:05:51.102Z,1016.15
2018-09-28T03:07:00.015Z,1016.17
2018-09-28T03:08:08.654Z,1016.16
2018-09-28T03:09:17.568Z,1016.2
2018-09-28T03:10:26.203Z,1016.2
2018-09-28T03:11:35.123Z,1016.26
2018-09-28T03:12:44.020Z,1016.22
2018-09-28T03:13:52.675Z,1016.18
2018-09-28T03:15:01.569Z,1016.21
2018-09-28T03:16:10.220Z,1016.21
2018-09-28T03:17:18.869Z,1016.21
2018-09-28T03:18:27.503Z,1016.2
2018-09-28T03:19:36.149Z,1016.21
2018-09-28T03:20:45.064Z,1016.21
2018-09-28T03:21:53.970Z,1016.23
2018-09-28T03:23:02.615Z,1016.25
2018-09-28T03:24:11.247Z,1016.26
2018-09-28T03:25:20.184Z,1016.27
2018-09-28T03:26:28.808Z,1016.25
2018-09-28T03:27:37.460Z,1016.27
2018-09-28T03:28:46.096Z,1016.25
2018-09-28T03:29:54.744Z,1016.22
2018-09-28T03:31:03.645Z,1016.25
2018-09-28T03:32:12.305Z,1016.27
2018-09-28T03:33:20.950Z,1016.25
2018-09-28T03:34:29.859Z,1016.26
2018-09-28T03:35:38.506Z,1016.26
2018-09-28T03:36:47.155Z,1016.27
2018-09-28T03:37:55.795Z,1016.29
2018-09-28T03:39:04.432Z,1016.25
2018-09-28T03:40:13.336Z,1016.3
2018-09-28T03:41:21.975Z,1016.3
2018-09-28T03:42:30.888Z,1016.32
2018-09-28T03:43:39.528Z,1016.32
2018-09-28T03:44:48.172Z,1016.33
2018-09-28T03:45:57.066Z,1016.31
2018-09-28T03:47:05.725Z,1016.32
2018-09-28T03:48:14.360Z,1016.35
2018-09-28T03:49:23.008Z,1016.37
2018-09-28T03:50:31.906Z,1016.41
2018-09-28T03:51:40.558Z,1016.43
2018-09-28T03:52:49.462Z,1016.44
2018-09-28T03:53:58.108Z,1016.46
2018-09-28T03:55:06.747Z,1016.45
2018-09-28T03:56:15.392Z,1016.48
2018-09-28T03:57:24.041Z,1016.44
2018-09-28T03:58:32.692Z,1016.48
2018-09-28T03:59:41.599Z,1016.48
2018-09-28T04:00:50.508Z,1016.47
2018-09-28T04:01:59.474Z,1016.48
2018-09-28T04:03:08.117Z,1016.45
2018-09-28T04:04:16.774Z,1016.43
2018-09-28T04:05:25.680Z,1016.4
2018-09-28T04:06:34.323Z,1016.42
2018-09-28T04:07:43.220Z,1016.44
2018-09-28T04:08:52.139Z,1016.43
2018-09-28T04:10:00.774Z,1016.38
2018-09-28T04:11:09.680Z,1016.36
2018-09-28T04:12:18.323Z,1016.41
2018-09-28T04:13:26.969Z,1016.43
2018-09-28T04:14:35.618Z,1016.44
2018-09-28T04:15:44.255Z,1016.43
2018-09-28T04:16:52.897Z,1016.48
2018-09-28T04:18:01.539Z,1016.5
2018-09-28T04:19:10.189Z,1016.51
2018-09-28T04:20:19.093Z,1016.56
2018-09-28T04:21:27.737Z,1016.55
2018-09-28T04:22:36.396Z,1016.62
2018-09-28T04:23:45.320Z,1016.62
2018-09-28T04:24:54.223Z,1016.62
2018-09-28T04:26:03.393Z,1016.58
2018-09-28T04:27:12.581Z,1016.59
2018-09-28T04:28:21.227Z,1016.58
2018-09-28T04:29:30.136Z,1016.62
2018-09-28T04:30:38.781Z,1016.61
2018-09-28T04:31:47.684Z,1016.62
2018-09-28T04:32:56.339Z,1016.67
2018-09-28T04:34:05.243Z,1016.71
2018-09-28T04:35:13.893Z,1016.72
2018-09-28T04:36:22.801Z,1016.71
2018-09-28T04:37:31.442Z,1016.69
2018-09-28T04:38:40.089Z,1016.7
2018-09-28T04:39:48.730Z,1016.76
2018-09-28T04:40:57.379Z,1016.79
2018-09-28T04:42:06.018Z,1016.78
2018-09-28T04:43:14.928Z,1016.79
2018-09-28T04:44:23.573Z,1016.83
2018-09-28T04:45:32.242Z,1016.84
2018-09-28T04:46:40.861Z,1016.82
2018-09-28T04:47:49.506Z,1016.84
2018-09-28T04:48:58.147Z,1016.91
2018-09-28T04:50:06.794Z,1016.92
2018-09-28T04:51:15.436Z,1016.95
2018-09-28T04:52:24.078Z,1016.96
2018-09-28T04:53:32.723Z,1016.96
2018-09-28T04:54:41.354Z,1016.93
2018-09-28T04:55:50.027Z,1016.93
2018-09-28T04:56:59.166Z,1016.96
2018-09-28T04:58:07.806Z,1016.98
2018-09-28T04:59:16.444Z,1016.99
2018-09-28T05:00:25.091Z,1017.05
2018-09-28T05:01:33.732Z,1017.06
2018-09-28T05:02:42.372Z,1017.07
2018-09-28T05:03:51.010Z,1017.1
2018-09-28T05:04:59.657Z,1017.12
2018-09-28T05:06:08.298Z,1017.16
2018-09-28T05:07:16.942Z,1017.2
2018-09-28T05:08:25.583Z,1017.22
2018-09-28T05:09:34.228Z,1017.23
2018-09-28T05:10:43.138Z,1017.26
2018-09-28T05:11:52.049Z,1017.27
2018-09-28T05:13:00.704Z,1017.32
2018-09-28T05:14:09.687Z,1017.34
2018-09-28T05:15:18.330Z,1017.34
2018-09-28T05:16:26.972Z,1017.3
2018-09-28T05:17:35.619Z,1017.31
2018-09-28T05:18:44.259Z,1017.3
2018-09-28T05:19:52.903Z,1017.3
2018-09-28T05:21:01.813Z,1017.32
2018-09-28T05:22:10.461Z,1017.29
2018-09-28T05:23:19.102Z,1017.28
2018-09-28T05:24:27.781Z,1017.3
2018-09-28T05:25:36.420Z,1017.27
2018-09-28T05:26:45.106Z,1017.27
2018-09-28T05:27:53.751Z,1017.28
2018-09-28T05:29:02.410Z,1017.29
2018-09-28T05:30:11.463Z,1017.33
2018-09-28T05:31:20.514Z,1017.34
2018-09-28T05:32:29.328Z,1017.37
2018-09-28T05:33:38.638Z,1017.4
2018-09-28T05:34:47.313Z,1017.47
2018-09-28T05:35:56.219Z,1017.51
2018-09-28T05:37:04.886Z,1017.56
2018-09-28T05:38:13.510Z,1017.58
2018-09-28T05:39:22.425Z,1017.61
2018-09-28T05:40:31.691Z,1017.66
2018-09-28T05:41:40.339Z,1017.69
2018-09-28T05:42:48.980Z,1017.69
2018-09-28T05:43:57.628Z,1017.71
2018-09-28T05:45:06.537Z,1017.7
2018-09-28T05:46:15.205Z,1017.76
2018-09-28T05:47:23.824Z,1017.77
2018-09-28T05:48:32.469Z,1017.83
2018-09-28T05:49:41.113Z,1017.85
2018-09-28T05:50:49.751Z,1017.86
2018-09-28T05:51:58.389Z,1017.88
2018-09-28T05:53:07.032Z,1017.86
2018-09-28T05:54:15.678Z,1017.88
2018-09-28T05:55:24.319Z,1017.83
2018-09-28T05:56:32.963Z,1017.91
2018-09-28T05:57:41.602Z,1017.93
2018-09-28T05:58:50.249Z,1017.96
2018-09-28T05:59:58.887Z,1018.01
2018-09-28T06:01:07.803Z,1018.06
2018-09-28T06:02:16.700Z,1018.12
2018-09-28T06:03:25.349Z,1018.1
2018-09-28T06:04:34.022Z,1018.16
2018-09-28T06:05:42.665Z,1018.13
2018-09-28T06:06:51.304Z,1018.15
2018-09-28T06:07:59.945Z,1018.15
2018-09-28T06:09:08.859Z,1018.13
2018-09-28T06:10:17.500Z,1018.15
2018-09-28T06:11:26.145Z,1018.15
2018-09-28T06:12:34.784Z,1018.17
2018-09-28T06:13:43.695Z,1018.2
2018-09-28T06:14:52.332Z,1018.24
2018-09-28T06:16:01.260Z,1018.23
2018-09-28T06:17:10.553Z,1018.25
2018-09-28T06:18:19.382Z,1018.28
2018-09-28T06:19:28.092Z,1018.33
2018-09-28T06:20:37.040Z,1018.38
2018-09-28T06:21:46.244Z,1018.4
2018-09-28T06:22:55.153Z,1018.46
2018-09-28T06:24:04.121Z,1018.46
2018-09-28T06:25:13.054Z,1018.42
2018-09-28T06:26:21.706Z,1018.42
2018-09-28T06:27:30.606Z,1018.47
2018-09-28T06:28:39.267Z,1018.48
2018-09-28T06:29:47.957Z,1018.49
2018-09-28T06:30:56.556Z,1018.55
2018-09-28T06:32:05.183Z,1018.59
2018-09-28T06:33:13.831Z,1018.62
2018-09-28T06:34:22.467Z,1018.61
2018-09-28T06:35:31.179Z,1018.64
2018-09-28T06:36:39.752Z,1018.61
2018-09-28T06:37:48.399Z,1018.65
2018-09-28T06:38:57.059Z,1018.67
2018-09-28T06:40:05.688Z,1018.68
2018-09-28T06:41:14.329Z,1018.72
2018-09-28T06:42:23.078Z,1018.75
2018-09-28T06:43:32.018Z,1018.76
2018-09-28T06:44:40.701Z,1018.72
2018-09-28T06:45:49.676Z,1018.77
2018-09-28T06:46:58.315Z,1018.84
2018-09-28T06:48:06.969Z,1018.79
2018-09-28T06:49:15.605Z,1018.84
2018-09-28T06:50:24.255Z,1018.82
2018-09-28T06:51:32.998Z,1018.84
2018-09-28T06:52:41.646Z,1018.83
2018-09-28T06:53:50.298Z,1018.87
2018-09-28T06:54:58.932Z,1018.8
2018-09-28T06:56:07.574Z,1018.91
2018-09-28T06:57:16.218Z,1018.9
2018-09-28T06:58:24.851Z,1018.99
2018-09-28T06:59:33.495Z,1018.96
2018-09-28T07:00:42.143Z,1019
2018-09-28T07:01:51.055Z,1019.03
2018-09-28T07:02:59.699Z,1019.03
2018-09-28T07:04:08.369Z,1019.08
2018-09-28T07:05:16.994Z,1019.07
2018-09-28T07:06:25.632Z,1019.03
2018-09-28T07:07:34.283Z,1019.09
2018-09-28T07:08:42.915Z,1019.08
2018-09-28T07:09:51.561Z,1019.12
2018-09-28T07:11:00.198Z,1019.15
2018-09-28T07:12:09.108Z,1019.18
2018-09-28T07:13:17.754Z,1019.14
2018-09-28T07:14:26.395Z,1019.2
2018-09-28T07:15:35.042Z,1019.24
2018-09-28T07:16:43.796Z,1019.29
2018-09-28T07:17:52.731Z,1019.3
2018-09-28T07:19:01.366Z,1019.33
2018-09-28T07:20:10.049Z,1019.37
2018-09-28T07:21:18.659Z,1019.39
2018-09-28T07:22:27.289Z,1019.36
2018-09-28T07:23:35.937Z,1019.38
2018-09-28T07:24:44.637Z,1019.42
2018-09-28T07:25:53.628Z,1019.42
2018-09-28T07:27:02.537Z,1019.47
2018-09-28T07:28:11.175Z,1019.42
2018-09-28T07:29:19.815Z,1019.48
2018-09-28T07:30:28.466Z,1019.49
2018-09-28T07:31:37.099Z,1019.54
2018-09-28T07:32:45.745Z,1019.52
2018-09-28T07:33:54.385Z,1019.49
2018-09-28T07:35:03.045Z,1019.52
2018-09-28T07:36:11.987Z,1019.54
2018-09-28T07:37:20.708Z,1019.55
2018-09-28T07:38:29.249Z,1019.55
2018-09-28T07:39:37.888Z,1019.56
2018-09-28T07:40:46.541Z,1019.55
2018-09-28T07:41:55.196Z,1019.59
2018-09-28T07:43:04.208Z,1019.54
2018-09-28T07:44:12.849Z,1019.6
2018-09-28T07:45:22.026Z,1019.6
2018-09-28T07:46:30.664Z,1019.61
2018-09-28T07:47:39.584Z,1019.67
2018-09-28T07:48:48.541Z,1019.66
2018-09-28T07:49:57.191Z,1019.72
2018-09-28T07:51:05.834Z,1019.71
2018-09-28T07:52:14.479Z,1019.71
2018-09-28T07:53:23.112Z,1019.78
2018-09-28T07:54:32.019Z,1019.83
2018-09-28T07:55:40.679Z,1019.87
2018-09-28T07:56:49.312Z,1019.82
2018-09-28T07:57:57.958Z,1019.85
2018-09-28T07:59:06.601Z,1019.91
2018-09-28T08:00:15.250Z,1019.88
2018-09-28T08:01:23.887Z,1019.91
2018-09-28T08:02:32.543Z,1019.9
2018-09-28T08:03:41.175Z,1019.9
2018-09-28T08:04:49.824Z,1019.9
2018-09-28T08:05:58.463Z,1019.93
2018-09-28T08:07:07.118Z,1019.95
2018-09-28T08:08:15.756Z,1020.03
2018-09-28T08:09:24.404Z,1019.94
2018-09-28T08:10:33.047Z,1019.99
2018-09-28T08:11:41.693Z,1019.99
2018-09-28T08:12:50.348Z,1020.07
2018-09-28T08:13:59.266Z,1020.04
2018-09-28T08:15:07.907Z,1020.04
2018-09-28T08:16:16.548Z,1020.08
2018-09-28T08:17:25.469Z,1020.12
2018-09-28T08:18:34.114Z,1020.17
2018-09-28T08:19:42.761Z,1020.23
2018-09-28T08:20:51.404Z,1020.24
2018-09-28T08:22:00.051Z,1020.17
2018-09-28T08:23:08.695Z,1020.12
2018-09-28T08:24:17.339Z,1020.19
2018-09-28T08:25:25.978Z,1020.14
2018-09-28T08:26:34.630Z,1020.19
2018-09-28T08:27:43.562Z,1020.23
2018-09-28T08:28:52.274Z,1020.24
2018-09-28T08:30:01.470Z,1020.26
2018-09-28T08:31:10.411Z,1020.36
2018-09-28T08:32:19.066Z,1020.33
2018-09-28T08:33:27.976Z,1020.31
2018-09-28T08:34:36.621Z,1020.29
2018-09-28T08:35:45.260Z,1020.34
2018-09-28T08:36:54.745Z,1020.33
2018-09-28T08:38:03.314Z,1020.3
2018-09-28T08:39:11.981Z,1020.38
2018-09-28T08:40:20.622Z,1020.38
2018-09-28T08:41:29.267Z,1020.37
2018-09-28T08:42:37.913Z,1020.36
2018-09-28T08:43:46.704Z,1020.4
2018-09-28T08:44:55.538Z,1020.36
2018-09-28T08:46:04.454Z,1020.39
2018-09-28T08:47:13.096Z,1020.42
2018-09-28T08:48:21.744Z,1020.46
2018-09-28T08:49:30.386Z,1020.4
2018-09-28T08:50:39.032Z,1020.44
2018-09-28T08:51:47.675Z,1020.48
2018-09-28T08:52:56.322Z,1020.45
2018-09-28T08:54:05.237Z,1020.48
2018-09-28T08:55:13.881Z,1020.42
2018-09-28T08:56:22.525Z,1020.49
2018-09-28T08:57:31.163Z,1020.54
2018-09-28T08:58:39.812Z,1020.51
2018-09-28T08:59:48.713Z,1020.57
2018-09-28T09:00:57.357Z,1020.56
2018-09-28T09:02:06.319Z,1020.68
2018-09-28T09:03:15.275Z,1020.59
2018-09-28T09:04:23.923Z,1020.6
2018-09-28T09:05:32.566Z,1020.64
2018-09-28T09:06:41.205Z,1020.67
2018-09-28T09:07:49.854Z,1020.72
2018-09-28T09:08:58.498Z,1020.72
2018-09-28T09:10:07.145Z,1020.74
2018-09-28T09:11:15.794Z,1020.78
2018-09-28T09:12:24.429Z,1020.83
2018-09-28T09:13:33.077Z,1020.83
2018-09-28T09:14:41.720Z,1020.87
2018-09-28T09:15:50.371Z,1020.87
2018-09-28T09:16:59.537Z,1020.93
2018-09-28T09:18:08.330Z,1020.9
2018-09-28T09:19:17.404Z,1020.94
2018-09-28T09:20:26.056Z,1020.91
2018-09-28T09:21:34.962Z,1020.89
2018-09-28T09:22:43.872Z,1020.89
2018-09-28T09:23:52.545Z,1020.93
2018-09-28T09:25:01.537Z,1020.92
2018-09-28T09:26:10.181Z,1020.88
2018-09-28T09:27:19.085Z,1020.91
2018-09-28T09:28:27.731Z,1020.85
2018-09-28T09:29:36.817Z,1020.92
2018-09-28T09:30:45.469Z,1020.89
2018-09-28T09:31:54.109Z,1020.92
2018-09-28T09:33:02.919Z,1020.9
2018-09-28T09:34:11.552Z,1020.9
2018-09-28T09:35:20.207Z,1020.91
2018-09-28T09:36:28.870Z,1020.93
2018-09-28T09:37:37.496Z,1020.97
2018-09-28T09:38:46.239Z,1020.92
2018-09-28T09:39:54.966Z,1021.01
2018-09-28T09:41:03.607Z,1021
2018-09-28T09:42:12.252Z,1021.05
2018-09-28T09:43:20.887Z,1021.07
2018-09-28T09:44:29.534Z,1021.03
2018-09-28T09:45:38.181Z,1021.07
2018-09-28T09:46:46.830Z,1021.05
2018-09-28T09:47:55.479Z,1021.06
2018-09-28T09:49:04.113Z,1021.1
2018-09-28T09:50:12.765Z,1021.06
2018-09-28T09:51:21.641Z,1021.05
2018-09-28T09:52:30.616Z,1021.07
2018-09-28T09:53:39.245Z,1021.03
2018-09-28T09:54:48.206Z,1021.05
2018-09-28T09:55:56.853Z,1021.03
2018-09-28T09:57:05.507Z,1021.07
2018-09-28T09:58:14.827Z,1021.06
2018-09-28T09:59:23.348Z,1021.1
2018-09-28T10:00:32.513Z,1021.11
2018-09-28T10:01:41.167Z,1021.11
2018-09-28T10:02:49.809Z,1021.07
2018-09-28T10:03:58.449Z,1021.1
2018-09-28T10:05:07.097Z,1021.09
2018-09-28T10:06:15.735Z,1021.07
2018-09-28T10:07:24.389Z,1021.12
2018-09-28T10:08:33.036Z,1021.12
2018-09-28T10:09:41.712Z,1021.11
2018-09-28T10:10:50.761Z,1021.1
2018-09-28T10:11:59.680Z,1021.16
2018-09-28T10:13:08.322Z,1021.15
2018-09-28T10:14:17.225Z,1021.19
2018-09-28T10:15:26.312Z,1021.1
2018-09-28T10:16:34.963Z,1021.14
2018-09-28T10:17:43.604Z,1021.14
2018-09-28T10:18:52.257Z,1021.17
2018-09-28T10:20:00.903Z,1021.16
2018-09-28T10:21:09.544Z,1021.14
2018-09-28T10:22:18.277Z,1021.17
2018-09-28T10:23:26.923Z,1021.14
2018-09-28T10:24:35.570Z,1021.15
2018-09-28T10:25:44.215Z,1021.16
2018-09-28T10:26:52.876Z,1021.19
2018-09-28T10:28:01.863Z,1021.19
2018-09-28T10:29:10.498Z,1021.16
2018-09-28T10:30:19.142Z,1021.17
2018-09-28T10:31:28.052Z,1021.17
2018-09-28T10:32:36.694Z,1021.21
2018-09-28T10:33:45.443Z,1021.21
2018-09-28T10:34:53.986Z,1021.21
2018-09-28T10:36:02.630Z,1021.22
2018-09-28T10:37:11.543Z,1021.25
2018-09-28T10:38:20.202Z,1021.23
2018-09-28T10:39:29.163Z,1021.31
2018-09-28T10:40:37.875Z,1021.29
2018-09-28T10:41:46.406Z,1021.29
2018-09-28T10:42:55.049Z,1021.3
2018-09-28T10:44:03.961Z,1021.27
2018-09-28T10:45:12.652Z,1021.28
2018-09-28T10:46:21.570Z,1021.28
2018-09-28T10:47:30.211Z,1021.26
2018-09-28T10:48:38.860Z,1021.24
2018-09-28T10:49:47.513Z,1021.27
2018-09-28T10:50:56.553Z,1021.34
2018-09-28T10:52:05.252Z,1021.31
2018-09-28T10:53:13.861Z,1021.28
2018-09-28T10:54:22.412Z,1021.23
2018-09-28T10:55:31.060Z,1021.21
2018-09-28T10:56:39.703Z,1021.23
2018-09-28T10:57:48.350Z,1021.26
2018-09-28T10:58:57.047Z,1021.19
2018-09-28T11:00:05.642Z,1021.2
2018-09-28T11:01:14.289Z,1021.16
2018-09-28T11:02:22.931Z,1021.2
2018-09-28T11:03:31.849Z,1021.22
2018-09-28T11:04:40.607Z,1021.23
2018-09-28T11:05:49.131Z,1021.26
2018-09-28T11:06:57.777Z,1021.22
2018-09-28T11:08:06.435Z,1021.3
2018-09-28T11:09:15.116Z,1021.29
2018-09-28T11:10:23.877Z,1021.3
2018-09-28T11:11:32.816Z,1021.3
2018-09-28T11:12:41.744Z,1021.27
2018-09-28T11:13:50.775Z,1021.29
2018-09-28T11:14:59.689Z,1021.3
2018-09-28T11:16:08.343Z,1021.32
2018-09-28T11:17:17.260Z,1021.24
2018-09-28T11:18:25.914Z,1021.26
2018-09-28T11:19:34.651Z,1021.21
2018-09-28T11:20:43.299Z,1021.21
2018-09-28T11:21:52.209Z,1021.2
2018-09-28T11:23:00.857Z,1021.22
2018-09-28T11:24:10.033Z,1021.18
2018-09-28T11:25:18.674Z,1021.15
2018-09-28T11:26:27.454Z,1021.15
2018-09-28T11:27:36.413Z,1021.18
2018-09-28T11:28:46.296Z,1021.16
2018-09-28T11:29:54.939Z,1021.16
2018-09-28T11:31:03.587Z,1021.15
2018-09-28T11:32:12.294Z,1021.17
2018-09-28T11:33:21.075Z,1021.18
2018-09-28T11:34:29.687Z,1021.16
2018-09-28T11:35:38.670Z,1021.19
2018-09-28T11:36:47.313Z,1021.13
2018-09-28T11:37:55.957Z,1021.18
2018-09-28T11:39:04.769Z,1021.21
2018-09-28T11:40:13.420Z,1021.17
2018-09-28T11:41:22.672Z,1021.2
2018-09-28T11:42:31.314Z,1021.18
2018-09-28T11:43:40.332Z,1021.15
2018-09-28T11:44:49.235Z,1021.13
2018-09-28T11:45:57.975Z,1021.15
2018-09-28T11:47:06.616Z,1021.13
2018-09-28T11:48:15.265Z,1021.12
2018-09-28T11:49:23.934Z,1021.12
2018-09-28T11:50:32.588Z,1021.17
2018-09-28T11:51:41.640Z,1021.1
2018-09-28T11:52:50.254Z,1021.14
2018-09-28T11:53:58.899Z,1021.15
2018-09-28T11:55:07.547Z,1021.23
2018-09-28T11:56:16.198Z,1021.18
2018-09-28T11:57:24.960Z,1021.22
2018-09-28T11:58:34.177Z,1021.16
2018-09-28T11:59:42.824Z,1021.15
2018-09-28T12:00:51.471Z,1021.19
2018-09-28T12:02:00.113Z,1021.19
2018-09-28T12:03:08.763Z,1021.19
2018-09-28T12:04:17.747Z,1021.2
2018-09-28T12:05:26.663Z,1021.26
2018-09-28T12:06:35.522Z,1021.22
2018-09-28T12:07:43.947Z,1021.27
2018-09-28T12:08:52.861Z,1021.26
2018-09-28T12:10:01.517Z,1021.21
2018-09-28T12:11:10.421Z,1021.23
2018-09-28T12:12:19.181Z,1021.27
2018-09-28T12:13:28.136Z,1021.23
2018-09-28T12:14:36.772Z,1021.24
2018-09-28T12:15:45.488Z,1021.22
2018-09-28T12:16:54.908Z,1021.24
2018-09-28T12:18:03.552Z,1021.2
2018-09-28T12:19:12.184Z,1021.16
2018-09-28T12:20:20.840Z,1021.2
2018-09-28T12:21:29.497Z,1021.19
2018-09-28T12:22:38.133Z,1021.17
2018-09-28T12:23:46.769Z,1021.19
2018-09-28T12:24:55.428Z,1021.17
2018-09-28T12:26:04.072Z,1021.21
2018-09-28T12:27:12.733Z,1021.18
2018-09-28T12:28:21.357Z,1021.22
2018-09-28T12:29:30.008Z,1021.22
2018-09-28T12:30:38.672Z,1021.18
2018-09-28T12:31:47.303Z,1021.17
2018-09-28T12:32:56.213Z,1021.2
2018-09-28T12:34:05.117Z,1021.19
2018-09-28T12:35:14.029Z,1021.18
2018-09-28T12:36:22.751Z,1021.17
2018-09-28T12:37:31.327Z,1021.19
2018-09-28T12:38:39.962Z,1021.2
2018-09-28T12:39:48.778Z,1021.2
2018-09-28T12:40:57.251Z,1021.25
2018-09-28T12:42:05.968Z,1021.2
2018-09-28T12:43:14.547Z,1021.17
2018-09-28T12:44:23.309Z,1021.17
2018-09-28T12:45:31.887Z,1021.2
2018-09-28T12:46:41.268Z,1021.21
2018-09-28T12:47:49.912Z,1021.23
2018-09-28T12:48:58.562Z,1021.23
2018-09-28T12:50:07.208Z,1021.22
2018-09-28T12:51:15.849Z,1021.21
2018-09-28T12:52:24.506Z,1021.24
2018-09-28T12:53:33.451Z,1021.3
2018-09-28T12:54:42.117Z,1021.28
2018-09-28T12:55:50.700Z,1021.25
2018-09-28T12:56:59.618Z,1021.24
2018-09-28T12:58:08.259Z,1021.28
2018-09-28T12:59:16.909Z,1021.27
2018-09-28T13:00:25.591Z,1021.28
2018-09-28T13:01:34.529Z,1021.25
2018-09-28T13:02:43.251Z,1021.37
2018-09-28T13:03:52.215Z,1021.34
2018-09-28T13:05:00.866Z,1021.32
2018-09-28T13:06:09.564Z,1021.34
2018-09-28T13:07:18.155Z,1021.31
2018-09-28T13:08:27.150Z,1021.32
2018-09-28T13:09:35.714Z,1021.28
2018-09-28T13:10:44.364Z,1021.3
2018-09-28T13:11:53.009Z,1021.32
2018-09-28T13:13:01.653Z,1021.3
2018-09-28T13:14:10.298Z,1021.28
2018-09-28T13:15:19.604Z,1021.31
2018-09-28T13:16:28.517Z,1021.3
2018-09-28T13:17:37.163Z,1021.23
2018-09-28T13:18:45.850Z,1021.26
2018-09-28T13:19:54.456Z,1021.24
2018-09-28T13:21:03.157Z,1021.26
2018-09-28T13:22:11.751Z,1021.32
2018-09-28T13:23:20.392Z,1021.27
2018-09-28T13:24:29.311Z,1021.3
2018-09-28T13:25:38.229Z,1021.3
2018-09-28T13:26:47.206Z,1021.31
2018-09-28T13:27:56.052Z,1021.29
2018-09-28T13:29:04.744Z,1021.26
2018-09-28T13:30:13.353Z,1021.3
2018-09-28T13:31:21.992Z,1021.28
2018-09-28T13:32:30.668Z,1021.31
2018-09-28T13:33:39.289Z,1021.36
2018-09-28T13:34:48.193Z,1021.4
2018-09-28T13:35:56.840Z,1021.34
2018-09-28T13:37:05.489Z,1021.4
2018-09-28T13:38:14.736Z,1021.36
2018-09-28T13:39:23.315Z,1021.37
2018-09-28T13:40:31.956Z,1021.38
2018-09-28T13:41:40.605Z,1021.43
2018-09-28T13:42:49.327Z,1021.4
2018-09-28T13:43:57.890Z,1021.41
2018-09-28T13:45:07.148Z,1021.42
2018-09-28T13:46:15.768Z,1021.43
2018-09-28T13:47:24.375Z,1021.4
2018-09-28T13:48:33.058Z,1021.41
2018-09-28T13:49:41.667Z,1021.43
2018-09-28T13:50:50.424Z,1021.42
2018-09-28T13:51:58.989Z,1021.35
2018-09-28T13:53:07.939Z,1021.39
2018-09-28T13:54:16.868Z,1021.34
2018-09-28T13:55:25.484Z,1021.38